createdAt,value
2018-01-29T00:01:03.536Z,9.70
2018-01-29T00:03:30.526Z,9.70
2018-01-29T00:05:57.042Z,9.70
2018-01-29T00:08:23.357Z,9.60
2018-01-29T00:10:50.353Z,9.60
2018-01-29T00:13:16.621Z,9.60
2018-01-29T00:15:42.853Z,9.50
2018-01-29T00:18:09.177Z,9.60
2018-01-29T00:20:35.415Z,9.50
2018-01-29T00:23:02.423Z,9.40
2018-01-29T00:25:28.669Z,9.40
2018-01-29T00:27:54.913Z,9.40
2018-01-29T00:30:21.155Z,9.40
2018-01-29T00:32:48.158Z,9.40
2018-01-29T00:35:15.151Z,9.40
2018-01-29T00:37:42.178Z,9.40
2018-01-29T00:40:08.423Z,9.40
2018-01-29T00:42:35.428Z,9.40
2018-01-29T00:45:01.692Z,9.40
2018-01-29T00:47:28.702Z,9.40
2018-01-29T00:49:54.950Z,9.40
2018-01-29T00:52:21.176Z,9.40
2018-01-29T00:54:47.528Z,9.40
2018-01-29T00:57:14.542Z,9.40
2018-01-29T00:59:40.787Z,9.40
2018-01-29T01:02:07.089Z,9.40
2018-01-29T01:04:33.359Z,9.40
2018-01-29T01:07:00.421Z,9.40
2018-01-29T01:09:26.740Z,9.40
2018-01-29T01:11:53.735Z,9.50
2018-01-29T01:14:19.975Z,9.50
2018-01-29T01:16:46.263Z,9.50
2018-01-29T01:19:13.246Z,9.50
2018-01-29T01:21:39.503Z,9.50
2018-01-29T01:24:05.767Z,9.50
2018-01-29T01:26:32.108Z,9.50
2018-01-29T01:28:59.114Z,9.50
2018-01-29T01:31:25.350Z,9.50
2018-01-29T01:33:51.614Z,9.50
2018-01-29T01:36:18.643Z,9.50
2018-01-29T01:38:44.896Z,9.50
2018-01-29T01:41:11.234Z,9.60
2018-01-29T01:43:37.504Z,9.50
2018-01-29T01:46:03.822Z,9.50
2018-01-29T01:48:30.092Z,9.50
2018-01-29T01:50:56.429Z,9.50
2018-01-29T01:53:23.452Z,9.60
2018-01-29T01:55:49.704Z,9.50
2018-01-29T01:58:16.903Z,9.60
2018-01-29T02:00:43.197Z,9.60
2018-01-29T02:03:10.201Z,9.70
2018-01-29T02:05:36.477Z,9.60
2018-01-29T02:08:03.476Z,9.60
2018-01-29T02:10:30.473Z,9.60
2018-01-29T02:12:56.739Z,9.60
2018-01-29T02:15:23.181Z,9.60
2018-01-29T02:17:49.433Z,9.60
2018-01-29T02:20:15.769Z,9.60
2018-01-29T02:22:42.065Z,9.60
2018-01-29T02:25:08.320Z,9.70
2018-01-29T02:27:34.652Z,9.60
2018-01-29T02:30:00.915Z,9.60
2018-01-29T02:32:27.922Z,9.60
2018-01-29T02:34:54.174Z,9.60
2018-01-29T02:37:20.425Z,9.60
2018-01-29T02:39:46.697Z,9.60
2018-01-29T02:42:12.981Z,9.60
2018-01-29T02:44:39.986Z,9.60
2018-01-29T02:47:06.323Z,9.60
2018-01-29T02:49:32.568Z,9.50
2018-01-29T02:51:58.841Z,9.40
2018-01-29T02:54:25.155Z,9.40
2018-01-29T02:56:52.157Z,9.40
2018-01-29T02:59:18.412Z,9.30
2018-01-29T03:01:44.737Z,9.40
2018-01-29T03:04:11.014Z,9.40
2018-01-29T03:06:37.315Z,9.40
2018-01-29T03:09:03.614Z,9.30
2018-01-29T03:11:29.841Z,9.40
2018-01-29T03:13:56.175Z,9.40
2018-01-29T03:16:22.413Z,9.40
2018-01-29T03:18:48.671Z,9.40
2018-01-29T03:21:14.961Z,9.40
2018-01-29T03:23:41.252Z,9.40
2018-01-29T03:26:07.493Z,9.40
2018-01-29T03:28:33.796Z,9.40
2018-01-29T03:31:00.049Z,9.40
2018-01-29T03:33:26.309Z,9.40
2018-01-29T03:35:52.704Z,9.40
2018-01-29T03:38:18.981Z,9.50
2018-01-29T03:40:45.312Z,9.50
2018-01-29T03:43:11.623Z,9.50
2018-01-29T03:45:37.882Z,9.60
2018-01-29T03:48:04.900Z,9.70
2018-01-29T03:50:31.146Z,9.70
2018-01-29T03:52:57.398Z,9.70
2018-01-29T03:55:24.426Z,9.70
2018-01-29T03:57:50.713Z,9.70
2018-01-29T04:00:16.993Z,9.70
2018-01-29T04:02:43.290Z,9.70
2018-01-29T04:05:09.603Z,9.70
2018-01-29T04:07:35.854Z,9.70
2018-01-29T04:10:02.157Z,9.70
2018-01-29T04:12:28.435Z,9.60
2018-01-29T04:14:54.685Z,9.50
2018-01-29T04:17:21.701Z,9.50
2018-01-29T04:19:47.951Z,9.40
2018-01-29T04:22:14.211Z,9.50
2018-01-29T04:24:40.495Z,9.50
2018-01-29T04:27:06.740Z,9.50
2018-01-29T04:29:32.970Z,9.40
2018-01-29T04:31:59.191Z,9.40
2018-01-29T04:34:25.428Z,9.40
2018-01-29T04:36:51.681Z,9.40
2018-01-29T04:39:17.948Z,9.40
2018-01-29T04:41:44.199Z,9.40
2018-01-29T04:44:12.280Z,9.40
2018-01-29T04:46:38.609Z,9.50
2018-01-29T04:49:04.909Z,9.40
2018-01-29T04:51:31.172Z,9.40
2018-01-29T04:53:57.503Z,9.40
2018-01-29T04:56:23.904Z,9.40
2018-01-29T04:58:50.208Z,9.40
2018-01-29T05:01:16.496Z,9.40
2018-01-29T05:03:42.752Z,9.40
2018-01-29T05:06:09.064Z,9.40
2018-01-29T05:08:35.355Z,9.40
2018-01-29T05:11:01.619Z,9.40
2018-01-29T05:13:27.947Z,9.40
2018-01-29T05:15:54.186Z,9.40
2018-01-29T05:18:20.436Z,9.30
2018-01-29T05:20:46.821Z,9.30
2018-01-29T05:23:13.057Z,9.20
2018-01-29T05:25:39.335Z,9.30
2018-01-29T05:28:05.593Z,9.20
2018-01-29T05:30:31.837Z,9.20
2018-01-29T05:33:04.920Z,9.20
2018-01-29T05:35:32.072Z,9.10
2018-01-29T05:37:58.390Z,9.10
2018-01-29T05:40:24.682Z,9.10
2018-01-29T05:42:51.004Z,9.10
2018-01-29T05:45:18.095Z,9.10
2018-01-29T05:47:44.453Z,9.10
2018-01-29T05:50:10.743Z,9.10
2018-01-29T05:52:37.031Z,9.10
2018-01-29T05:55:03.346Z,9.10
2018-01-29T05:57:29.659Z,9.10
2018-01-29T05:59:56.008Z,9.00
2018-01-29T06:02:22.355Z,9.00
2018-01-29T06:04:48.700Z,9.00
2018-01-29T06:07:15.807Z,9.00
2018-01-29T06:09:42.852Z,9.00
2018-01-29T06:12:09.101Z,8.90
2018-01-29T06:14:35.368Z,9.00
2018-01-29T06:17:01.722Z,9.00
2018-01-29T06:19:28.004Z,8.90
2018-01-29T06:21:54.312Z,8.90
2018-01-29T06:24:20.540Z,8.90
2018-01-29T06:26:46.874Z,8.90
2018-01-29T06:29:13.128Z,8.90
2018-01-29T06:31:39.476Z,8.90
2018-01-29T06:34:05.754Z,8.90
2018-01-29T06:36:31.996Z,8.90
2018-01-29T06:38:58.228Z,8.90
2018-01-29T06:41:24.548Z,8.90
2018-01-29T06:43:50.808Z,8.90
2018-01-29T06:46:17.084Z,8.90
2018-01-29T06:48:43.334Z,8.90
2018-01-29T06:51:09.602Z,8.90
2018-01-29T06:53:36.633Z,8.90
2018-01-29T06:56:02.903Z,8.90
2018-01-29T06:58:29.197Z,8.90
2018-01-29T07:00:55.432Z,8.90
2018-01-29T07:03:21.683Z,9.00
2018-01-29T07:05:47.941Z,9.00
2018-01-29T07:08:14.225Z,9.00
2018-01-29T07:10:42.291Z,9.10
2018-01-29T07:13:09.311Z,9.20
2018-01-29T07:15:35.568Z,9.20
2018-01-29T07:18:01.874Z,9.20
2018-01-29T07:20:28.140Z,9.30
2018-01-29T07:22:55.125Z,9.30
2018-01-29T07:25:21.418Z,9.30
2018-01-29T07:27:48.918Z,9.40
2018-01-29T07:30:15.948Z,9.40
2018-01-29T07:32:42.215Z,9.40
2018-01-29T07:35:08.513Z,9.30
2018-01-29T07:37:34.788Z,9.40
2018-01-29T07:40:01.075Z,9.40
2018-01-29T07:42:27.343Z,9.50
2018-01-29T07:44:53.694Z,9.60
2018-01-29T07:47:19.955Z,9.60
2018-01-29T07:49:46.227Z,9.60
2018-01-29T07:52:12.546Z,9.60
2018-01-29T07:54:38.879Z,9.70
2018-01-29T07:57:05.151Z,9.70
2018-01-29T07:59:31.431Z,9.70
2018-01-29T08:01:57.741Z,9.80
2018-01-29T08:04:24.069Z,9.90
2018-01-29T08:06:50.335Z,9.90
2018-01-29T08:09:16.638Z,10.00
2018-01-29T08:11:42.891Z,10.20
2018-01-29T08:14:09.131Z,10.30
2018-01-29T08:16:35.419Z,10.40
2018-01-29T08:19:01.689Z,10.30
2018-01-29T08:21:27.993Z,10.50
2018-01-29T08:23:54.312Z,10.50
2018-01-29T08:26:20.591Z,10.70
2018-01-29T08:28:46.947Z,10.50
2018-01-29T08:31:13.986Z,10.40
2018-01-29T08:33:40.268Z,10.40
2018-01-29T08:36:06.538Z,10.40
2018-01-29T08:38:32.800Z,10.70
2018-01-29T08:40:59.098Z,10.70
2018-01-29T08:43:25.384Z,10.80
2018-01-29T08:45:51.664Z,10.90
2018-01-29T08:48:17.891Z,10.90
2018-01-29T08:50:44.148Z,10.90
2018-01-29T08:53:11.273Z,11.00
2018-01-29T08:55:37.672Z,10.90
2018-01-29T08:58:04.843Z,11.00
2018-01-29T09:00:31.107Z,10.90
2018-01-29T09:02:58.063Z,11.10
2018-01-29T09:05:24.357Z,11.10
2018-01-29T09:07:50.667Z,11.30
2018-01-29T09:10:17.726Z,11.80
2018-01-29T09:12:43.967Z,11.80
2018-01-29T09:15:10.278Z,11.80
2018-01-29T09:17:36.553Z,11.90
2018-01-29T09:20:02.888Z,11.70
2018-01-29T09:22:29.173Z,11.80
2018-01-29T09:24:55.455Z,12.00
2018-01-29T09:27:21.760Z,12.00
2018-01-29T09:29:48.028Z,12.20
2018-01-29T09:32:14.298Z,12.20
2018-01-29T09:34:40.562Z,11.90
2018-01-29T09:37:07.574Z,11.70
2018-01-29T09:39:33.846Z,11.70
2018-01-29T09:42:00.134Z,11.60
2018-01-29T09:44:26.385Z,11.60
2018-01-29T09:46:53.427Z,11.50
2018-01-29T09:49:19.721Z,11.50
2018-01-29T09:51:46.752Z,11.30
2018-01-29T09:54:13.055Z,11.20
2018-01-29T09:56:40.073Z,11.20
2018-01-29T09:59:06.335Z,11.20
2018-01-29T10:01:33.323Z,11.30
2018-01-29T10:03:59.600Z,11.30
2018-01-29T10:06:26.588Z,11.20
2018-01-29T10:08:52.827Z,11.10
2018-01-29T10:11:19.168Z,11.10
2018-01-29T10:13:45.415Z,11.20
2018-01-29T10:16:11.658Z,11.20
2018-01-29T10:18:37.908Z,11.10
2018-01-29T10:21:04.920Z,11.00
2018-01-29T10:23:31.272Z,10.90
2018-01-29T10:25:58.253Z,10.90
2018-01-29T10:28:24.512Z,10.80
2018-01-29T10:30:50.752Z,11.00
2018-01-29T10:33:17.785Z,11.10
2018-01-29T10:35:44.052Z,11.10
2018-01-29T10:38:10.351Z,11.30
2018-01-29T10:40:36.701Z,11.40
2018-01-29T10:43:03.011Z,11.50
2018-01-29T10:45:29.313Z,11.70
2018-01-29T10:47:55.698Z,11.90
2018-01-29T10:50:21.937Z,12.10
2018-01-29T10:52:48.185Z,11.60
2018-01-29T10:55:14.445Z,11.70
2018-01-29T10:57:40.699Z,11.80
2018-01-29T11:00:07.041Z,11.80
2018-01-29T11:02:33.283Z,11.60
2018-01-29T11:04:59.512Z,11.30
2018-01-29T11:07:25.785Z,11.30
2018-01-29T11:09:52.035Z,11.40
2018-01-29T11:12:18.286Z,11.20
2018-01-29T11:14:44.585Z,11.40
2018-01-29T11:17:10.830Z,11.30
2018-01-29T11:19:37.106Z,11.10
2018-01-29T11:22:04.102Z,11.40
2018-01-29T11:24:30.405Z,11.40
2018-01-29T11:26:56.698Z,11.80
2018-01-29T11:29:22.996Z,11.80
2018-01-29T11:31:49.280Z,12.00
2018-01-29T11:34:15.586Z,11.80
2018-01-29T11:36:41.864Z,12.00
2018-01-29T11:39:08.156Z,12.10
2018-01-29T11:41:35.147Z,12.20
2018-01-29T11:44:01.529Z,12.20
2018-01-29T11:46:27.845Z,12.00
2018-01-29T11:48:55.661Z,11.80
2018-01-29T11:51:21.980Z,11.80
2018-01-29T11:53:48.265Z,11.90
2018-01-29T11:56:14.542Z,12.20
2018-01-29T11:58:40.835Z,12.40
2018-01-29T12:01:07.087Z,12.10
2018-01-29T12:03:33.375Z,12.40
2018-01-29T12:05:59.699Z,12.40
2018-01-29T12:08:25.997Z,12.50
2018-01-29T12:10:52.256Z,12.40
2018-01-29T12:13:18.519Z,12.20
2018-01-29T12:15:46.246Z,11.80
2018-01-29T12:18:13.626Z,11.70
2018-01-29T12:20:39.901Z,11.70
2018-01-29T12:23:06.168Z,11.70
2018-01-29T12:25:32.413Z,11.70
2018-01-29T12:27:58.704Z,11.60
2018-01-29T12:30:24.988Z,11.60
2018-01-29T12:32:51.376Z,11.50
2018-01-29T12:35:17.684Z,11.30
2018-01-29T12:37:43.960Z,11.40
2018-01-29T12:40:10.243Z,11.50
2018-01-29T12:42:36.510Z,11.50
2018-01-29T12:45:02.929Z,11.40
2018-01-29T12:47:29.215Z,11.30
2018-01-29T12:49:56.223Z,11.30
2018-01-29T12:52:22.503Z,11.30
2018-01-29T12:54:49.499Z,11.30
2018-01-29T12:57:15.776Z,11.30
2018-01-29T12:59:42.805Z,11.40
2018-01-29T13:02:09.147Z,11.40
2018-01-29T13:04:35.461Z,11.50
2018-01-29T13:07:01.737Z,11.60
2018-01-29T13:09:28.048Z,11.60
2018-01-29T13:11:55.038Z,11.90
2018-01-29T13:14:21.290Z,11.90
2018-01-29T13:16:47.603Z,12.20
2018-01-29T13:19:13.851Z,12.40
2018-01-29T13:21:40.116Z,12.30
2018-01-29T13:24:07.112Z,12.60
2018-01-29T13:26:33.388Z,12.50
2018-01-29T13:29:00.430Z,12.90
2018-01-29T13:31:26.724Z,12.90
2018-01-29T13:33:52.993Z,13.10
2018-01-29T13:36:19.986Z,14.70
2018-01-29T13:38:46.330Z,14.70
2018-01-29T13:41:12.654Z,15.10
2018-01-29T13:43:38.941Z,16.00
2018-01-29T13:46:05.951Z,17.40
2018-01-29T13:48:32.233Z,17.30
2018-01-29T13:50:58.567Z,16.30
2018-01-29T13:53:24.947Z,15.00
2018-01-29T13:55:52.197Z,13.40
2018-01-29T13:58:18.630Z,13.40
2018-01-29T14:00:44.947Z,13.00
2018-01-29T14:03:11.244Z,12.50
2018-01-29T14:05:37.503Z,12.50
2018-01-29T14:08:03.787Z,12.50
2018-01-29T14:10:30.848Z,12.90
2018-01-29T14:12:57.148Z,12.90
2018-01-29T14:15:23.502Z,12.90
2018-01-29T14:17:50.524Z,12.90
2018-01-29T14:20:16.779Z,12.80
2018-01-29T14:22:43.852Z,12.80
2018-01-29T14:25:10.435Z,12.80
2018-01-29T14:27:36.857Z,12.70
2018-01-29T14:30:03.202Z,12.40
2018-01-29T14:32:29.755Z,12.30
2018-01-29T14:34:56.121Z,12.40
2018-01-29T14:37:22.417Z,12.10
2018-01-29T14:39:49.535Z,12.20
2018-01-29T14:42:15.975Z,12.20
2018-01-29T14:44:42.288Z,12.10
2018-01-29T14:47:08.729Z,11.80
2018-01-29T14:49:34.996Z,11.80
2018-01-29T14:52:02.192Z,11.90
2018-01-29T14:54:28.431Z,11.80
2018-01-29T14:56:54.748Z,11.70
2018-01-29T14:59:21.025Z,11.70
2018-01-29T15:01:48.042Z,11.70
2018-01-29T15:04:14.340Z,11.70
2018-01-29T15:06:40.670Z,11.70
2018-01-29T15:09:07.030Z,11.70
2018-01-29T15:11:33.294Z,11.60
2018-01-29T15:13:59.576Z,11.50
2018-01-29T15:16:25.860Z,11.40
2018-01-29T15:18:52.218Z,11.30
2018-01-29T15:21:19.228Z,11.20
2018-01-29T15:23:45.540Z,11.20
2018-01-29T15:26:11.875Z,11.10
2018-01-29T15:28:38.246Z,11.00
2018-01-29T15:31:05.474Z,11.00
2018-01-29T15:33:31.891Z,11.00
2018-01-29T15:35:58.179Z,11.00
2018-01-29T15:38:24.551Z,11.00
2018-01-29T15:40:50.892Z,10.90
2018-01-29T15:43:17.231Z,11.00
2018-01-29T15:45:43.503Z,10.90
2018-01-29T15:48:09.831Z,10.90
2018-01-29T15:50:37.269Z,11.00
2018-01-29T15:53:04.280Z,11.00
2018-01-29T15:55:30.548Z,11.00
2018-01-29T15:57:57.564Z,10.80
2018-01-29T16:00:23.878Z,10.80
2018-01-29T16:02:50.191Z,10.80
2018-01-29T16:05:16.548Z,10.80
2018-01-29T16:07:42.836Z,10.80
2018-01-29T16:10:09.204Z,10.80
2018-01-29T16:12:35.478Z,10.70
2018-01-29T16:15:02.524Z,10.70
2018-01-29T16:17:29.572Z,10.70
2018-01-29T16:19:56.579Z,10.70
2018-01-29T16:22:22.865Z,10.70
2018-01-29T16:24:49.211Z,10.70
2018-01-29T16:27:15.535Z,10.70
2018-01-29T16:29:41.911Z,10.70
2018-01-29T16:32:08.239Z,10.70
2018-01-29T16:34:34.557Z,10.70
2018-01-29T16:37:00.907Z,10.60
2018-01-29T16:39:27.213Z,10.60
2018-01-29T16:41:53.491Z,10.60
2018-01-29T16:44:19.793Z,10.60
2018-01-29T16:46:46.116Z,10.70
2018-01-29T16:49:12.406Z,10.60
2018-01-29T16:51:38.732Z,10.60
2018-01-29T16:54:05.741Z,10.60
2018-01-29T16:56:32.130Z,10.60
2018-01-29T16:58:58.536Z,10.60
2018-01-29T17:01:24.829Z,10.60
2018-01-29T17:03:51.916Z,10.50
2018-01-29T17:06:18.948Z,10.50
2018-01-29T17:08:45.196Z,10.40
2018-01-29T17:11:11.478Z,10.40
2018-01-29T17:13:37.788Z,10.50
2018-01-29T17:16:04.224Z,10.50
2018-01-29T17:18:30.493Z,10.40
2018-01-29T17:20:57.820Z,10.40
2018-01-29T17:23:24.922Z,10.50
2018-01-29T17:25:51.267Z,10.40
2018-01-29T17:28:17.639Z,10.50
2018-01-29T17:30:44.053Z,10.50
2018-01-29T17:33:10.307Z,10.50
2018-01-29T17:35:37.403Z,10.50
2018-01-29T17:38:04.570Z,10.40
2018-01-29T17:40:30.920Z,10.30
2018-01-29T17:42:57.179Z,10.40
2018-01-29T17:45:23.422Z,10.30
2018-01-29T17:47:49.696Z,10.30
2018-01-29T17:50:16.012Z,10.40
2018-01-29T17:52:43.022Z,10.40
2018-01-29T17:55:09.324Z,10.30
2018-01-29T17:57:35.636Z,10.40
2018-01-29T18:00:01.967Z,10.40
2018-01-29T18:02:28.254Z,10.30
2018-01-29T18:04:54.496Z,10.30
2018-01-29T18:07:21.499Z,10.30
2018-01-29T18:09:47.799Z,10.30
2018-01-29T18:12:14.493Z,10.30
2018-01-29T18:14:40.837Z,10.30
2018-01-29T18:17:07.117Z,10.40
2018-01-29T18:19:33.375Z,10.30
2018-01-29T18:21:59.816Z,10.30
2018-01-29T18:24:26.105Z,10.30
2018-01-29T18:26:52.689Z,10.30
2018-01-29T18:29:19.027Z,10.30
2018-01-29T18:31:45.333Z,10.30
2018-01-29T18:34:11.672Z,10.30
2018-01-29T18:36:38.002Z,10.30
2018-01-29T18:39:04.302Z,10.20
2018-01-29T18:41:30.588Z,10.30
2018-01-29T18:43:56.928Z,10.30
2018-01-29T18:46:24.004Z,10.40
2018-01-29T18:48:50.362Z,10.30
2018-01-29T18:51:16.704Z,10.40
2018-01-29T18:53:43.030Z,10.40
2018-01-29T18:56:09.552Z,10.40
2018-01-29T18:58:35.958Z,10.40
2018-01-29T19:01:02.364Z,10.40
2018-01-29T19:03:28.690Z,10.40
2018-01-29T19:05:54.995Z,10.40
2018-01-29T19:08:22.069Z,10.30
2018-01-29T19:10:48.473Z,10.30
2018-01-29T19:13:14.803Z,10.30
2018-01-29T19:15:41.175Z,10.30
2018-01-29T19:18:08.343Z,10.20
2018-01-29T19:20:34.647Z,10.20
2018-01-29T19:23:01.760Z,10.20
2018-01-29T19:25:28.034Z,10.20
2018-01-29T19:27:55.153Z,10.10
2018-01-29T19:30:21.540Z,10.10
2018-01-29T19:32:47.958Z,10.10
2018-01-29T19:35:15.138Z,10.20
2018-01-29T19:37:42.338Z,10.20
2018-01-29T19:40:08.869Z,10.20
2018-01-29T19:42:35.242Z,10.30
2018-01-29T19:45:01.569Z,10.30
2018-01-29T19:47:28.446Z,10.30
2018-01-29T19:49:54.779Z,10.30
2018-01-29T19:52:21.075Z,10.40
2018-01-29T19:54:47.463Z,10.40
2018-01-29T19:57:13.799Z,10.40
2018-01-29T19:59:40.677Z,10.40
2018-01-29T20:02:07.035Z,10.40
2018-01-29T20:04:33.415Z,10.40
2018-01-29T20:07:00.020Z,10.40
2018-01-29T20:09:26.361Z,10.40
2018-01-29T20:11:52.738Z,10.40
2018-01-29T20:14:19.173Z,10.20
2018-01-29T20:16:45.582Z,10.10
2018-01-29T20:19:11.949Z,10.00
2018-01-29T20:21:38.324Z,9.90
2018-01-29T20:24:04.716Z,9.80
2018-01-29T20:26:31.862Z,9.80
2018-01-29T20:28:58.254Z,9.80
2018-01-29T20:31:25.263Z,9.80
2018-01-29T20:33:51.670Z,9.80
2018-01-29T20:36:18.049Z,9.80
2018-01-29T20:38:44.363Z,9.70
2018-01-29T20:41:10.877Z,9.80
2018-01-29T20:43:37.330Z,9.80
2018-01-29T20:46:03.775Z,9.80
2018-01-29T20:48:30.097Z,9.80
2018-01-29T20:50:57.013Z,9.70
2018-01-29T20:53:23.343Z,9.70
2018-01-29T20:55:50.417Z,9.80
2018-01-29T20:58:16.824Z,9.80
2018-01-29T21:00:43.117Z,9.80
2018-01-29T21:03:09.418Z,9.80
2018-01-29T21:05:35.661Z,9.80
2018-01-29T21:08:01.931Z,9.90
2018-01-29T21:10:28.943Z,9.90
2018-01-29T21:12:55.220Z,9.90
2018-01-29T21:15:22.220Z,9.80
2018-01-29T21:17:48.640Z,9.80
2018-01-29T21:20:14.996Z,9.80
2018-01-29T21:22:41.336Z,9.70
2018-01-29T21:25:07.736Z,9.70
2018-01-29T21:27:34.093Z,9.60
2018-01-29T21:30:00.462Z,9.50
2018-01-29T21:32:27.477Z,9.50
2018-01-29T21:34:53.871Z,9.40
2018-01-29T21:37:20.160Z,9.50
2018-01-29T21:39:47.203Z,9.40
2018-01-29T21:42:13.553Z,9.40
2018-01-29T21:44:39.915Z,9.30
2018-01-29T21:47:06.229Z,9.20
2018-01-29T21:49:32.572Z,9.10
2018-01-29T21:51:58.848Z,9.10
2018-01-29T21:54:25.223Z,9.10
2018-01-29T21:56:51.485Z,9.00
2018-01-29T21:59:17.771Z,9.00
2018-01-29T22:01:44.120Z,9.10
2018-01-29T22:04:10.402Z,9.00
2018-01-29T22:06:36.729Z,9.10
2018-01-29T22:09:03.012Z,9.20
2018-01-29T22:11:29.297Z,9.20
2018-01-29T22:13:55.579Z,9.20
2018-01-29T22:16:21.838Z,9.20
2018-01-29T22:18:48.136Z,9.20
2018-01-29T22:21:14.520Z,9.20
2018-01-29T22:23:40.800Z,9.10
2018-01-29T22:26:07.096Z,9.10
2018-01-29T22:28:34.132Z,9.10
2018-01-29T22:31:00.412Z,9.10
2018-01-29T22:33:26.676Z,9.10
2018-01-29T22:35:53.014Z,9.20
2018-01-29T22:38:19.314Z,9.20
2018-01-29T22:40:45.623Z,9.10
2018-01-29T22:43:11.925Z,9.10
2018-01-29T22:45:38.954Z,9.10
2018-01-29T22:48:05.217Z,9.00
2018-01-29T22:50:31.551Z,9.10
2018-01-29T22:52:57.855Z,8.90
2018-01-29T22:55:24.185Z,8.60
2018-01-29T22:57:50.499Z,8.00
2018-01-29T23:00:16.914Z,7.60
2018-01-29T23:02:43.297Z,7.20
2018-01-29T23:05:10.295Z,6.80
2018-01-29T23:07:36.630Z,6.80
2018-01-29T23:10:03.020Z,6.40
2018-01-29T23:12:29.351Z,6.20
2018-01-29T23:14:55.651Z,6.20
2018-01-29T23:17:21.918Z,6.10
2018-01-29T23:19:48.220Z,6.00
2018-01-29T23:22:14.524Z,6.00
2018-01-29T23:24:40.834Z,6.00
2018-01-29T23:27:07.068Z,6.10
2018-01-29T23:29:33.388Z,6.10
2018-01-29T23:31:59.624Z,6.10
2018-01-29T23:34:25.919Z,6.10
2018-01-29T23:36:52.166Z,6.20
2018-01-29T23:39:18.436Z,6.20
2018-01-29T23:41:44.684Z,6.10
2018-01-29T23:44:11.000Z,6.20
2018-01-29T23:46:37.256Z,6.20
2018-01-29T23:49:04.281Z,6.10
2018-01-29T23:51:30.562Z,6.10
2018-01-29T23:53:56.806Z,6.10
2018-01-29T23:56:23.088Z,6.20
2018-01-29T23:58:50.117Z,6.30
